METAR AND TAF INFORMATION
METAR FOR LGZA
ADDS - METARS form results

(0815 UTC 16 October 2019)
Data provider http://aviationweather.gov/metar/data/
 
METAR text: LGZA 160750Z 00000KT 9999 FEW018 23/17 Q1017
Conditions at: LGZA (ZAKINTHOS AIRPOR, GR) observed 0750 UTC 16 October 2019
Temperature: 23.0°C (73°F)
Dewpoint: 17.0°C (63°F) [RH = 69%]
Pressure (altimeter): 30.03 inches Hg (1017.0 mb)
Winds: calm
Visibility: 6 or more miles (10+ km)
Ceiling: at least 12,000 feet AGL
Clouds: few clouds at 1800 feet AGL
Weather: no significant weather observed at this time

METAR text: LGZA 160720Z 00000KT 9999 FEW018 21/18 Q1017
Conditions at: LGZA (ZAKINTHOS AIRPOR, GR) observed 0720 UTC 16 October 2019
Temperature: 21.0°C (70°F)
Dewpoint: 18.0°C (64°F) [RH = 83%]
Pressure (altimeter): 30.03 inches Hg (1017.0 mb)
Winds: calm
Visibility: 6 or more miles (10+ km)
Ceiling: at least 12,000 feet AGL
Clouds: few clouds at 1800 feet AGL
Weather: no significant weather observed at this time

Forecast for: LGZA (ZAKINTHOS AIRPOR, GR)
Text: TAF LGZA 160800Z 1609/1618 34010KT 9999 FEW018
Forecast period: 0900 to 1800 UTC 16 October 2019
Forecast type: FROM: standard forecast or significant change
Winds: from the NNW (340 degrees) at 12 MPH (10 knots; 5.1 m/s)
Visibility: 6 or more miles 10+ km)
Ceiling: at least 12,000 feet AGL
Clouds: few clouds at 1800 feet AGL
Weather: no significant weather forecast for this period

 ΧΑΡΤΗΣ ΑΕΡΟΔΡΟΜΙΟΥ

 RUNWAY INFORMATION
Διάδρομος 16 Runway length 7310 ft Runway width 98 ft
Runway elevation 11 ft Runway displaced threshold 640 ft Runway heading 163
Διάδρομος 34 Runway length 7310 ft Runway width 98 ft
Runway elevation 12 ft Runway displaced threshold 659 ft Runway heading 343

 ΣΥΧΝΟΤΗΤΕΣ ΑΕΡΟΔΡΟΜΙΟΥ
Τύπος A/G Όνομα RDO Συχνότητα 563.7 MHZ
Τύπος TWR Όνομα TWR Συχνότητα 125.425 MHZ

 AIRPORT NEAR NAVIGATION AIDS
Τύπος VOR-DME Όνομα Zakinthos Συχνότητα 110800 KHZ
Τύπος NDB Όνομα Zakinthos Συχνότητα 326 KHZ



Hellenic Air Force Virtual - All rights reserved 2019 - Powered by VAM